sensor_id;sensor_type;location;lat;lon;timestamp;P1;durP1;ratioP1;P2;durP2;ratioP2
29210;SDS011;16250;49.932;10.980;2022-12-07T00:00:41;12.38;;;11.77;;
29210;SDS011;16250;49.932;10.980;2022-12-07T00:03:07;10.52;;;10.13;;
29210;SDS011;16250;49.932;10.980;2022-12-07T00:05:32;11.25;;;10.85;;
29210;SDS011;16250;49.932;10.980;2022-12-07T00:07:58;9.75;;;9.45;;
29210;SDS011;16250;49.932;10.980;2022-12-07T00:10:23;10.02;;;9.63;;
29210;SDS011;16250;49.932;10.980;2022-12-07T00:12:49;9.20;;;8.90;;
29210;SDS011;16250;49.932;10.980;2022-12-07T00:15:15;9.70;;;9.40;;
29210;SDS011;16250;49.932;10.980;2022-12-07T00:17:40;9.05;;;8.75;;
29210;SDS011;16250;49.932;10.980;2022-12-07T00:20:06;10.80;;;10.40;;
29210;SDS011;16250;49.932;10.980;2022-12-07T00:22:32;10.32;;;9.93;;
29210;SDS011;16250;49.932;10.980;2022-12-07T00:24:57;10.52;;;10.13;;
29210;SDS011;16250;49.932;10.980;2022-12-07T00:27:23;9.13;;;8.73;;
29210;SDS011;16250;49.932;10.980;2022-12-07T00:29:48;11.57;;;10.98;;
29210;SDS011;16250;49.932;10.980;2022-12-07T00:32:14;10.57;;;10.13;;
29210;SDS011;16250;49.932;10.980;2022-12-07T00:34:40;9.57;;;8.98;;
29210;SDS011;16250;49.932;10.980;2022-12-07T00:37:05;10.50;;;10.10;;
29210;SDS011;16250;49.932;10.980;2022-12-07T00:39:31;9.63;;;9.32;;
29210;SDS011;16250;49.932;10.980;2022-12-07T00:41:56;11.15;;;10.50;;
29210;SDS011;16250;49.932;10.980;2022-12-07T00:44:22;11.13;;;10.73;;
29210;SDS011;16250;49.932;10.980;2022-12-07T00:46:47;10.07;;;9.45;;
29210;SDS011;16250;49.932;10.980;2022-12-07T00:49:13;10.07;;;9.68;;
29210;SDS011;16250;49.932;10.980;2022-12-07T00:51:38;12.02;;;11.50;;
29210;SDS011;16250;49.932;10.980;2022-12-07T00:54:04;9.10;;;8.75;;
29210;SDS011;16250;49.932;10.980;2022-12-07T00:56:29;11.85;;;11.35;;
29210;SDS011;16250;49.932;10.980;2022-12-07T00:58:56;10.35;;;9.88;;
29210;SDS011;16250;49.932;10.980;2022-12-07T01:01:24;10.15;;;9.75;;
29210;SDS011;16250;49.932;10.980;2022-12-07T01:03:52;9.85;;;9.55;;
29210;SDS011;16250;49.932;10.980;2022-12-07T01:06:19;10.10;;;9.73;;
29210;SDS011;16250;49.932;10.980;2022-12-07T01:08:45;9.45;;;9.15;;
29210;SDS011;16250;49.932;10.980;2022-12-07T01:11:17;8.48;;;8.07;;
29210;SDS011;16250;49.932;10.980;2022-12-07T01:13:44;10.60;;;9.98;;
29210;SDS011;16250;49.932;10.980;2022-12-07T01:16:12;12.48;;;11.98;;
29210;SDS011;16250;49.932;10.980;2022-12-07T01:18:39;10.68;;;10.13;;
29210;SDS011;16250;49.932;10.980;2022-12-07T01:21:12;10.93;;;10.48;;
29210;SDS011;16250;49.932;10.980;2022-12-07T01:23:43;8.80;;;8.50;;
29210;SDS011;16250;49.932;10.980;2022-12-07T01:26:12;10.70;;;10.30;;
29210;SDS011;16250;49.932;10.980;2022-12-07T01:28:44;8.98;;;8.68;;
29210;SDS011;16250;49.932;10.980;2022-12-07T01:31:11;10.55;;;10.15;;
29210;SDS011;16250;49.932;10.980;2022-12-07T01:33:40;9.07;;;8.77;;
29210;SDS011;16250;49.932;10.980;2022-12-07T01:36:18;9.57;;;9.27;;
29210;SDS011;16250;49.932;10.980;2022-12-07T01:38:49;9.88;;;9.55;;
29210;SDS011;16250;49.932;10.980;2022-12-07T01:41:17;11.75;;;11.25;;
29210;SDS011;16250;49.932;10.980;2022-12-07T01:46:48;9.77;;;9.48;;
29210;SDS011;16250;49.932;10.980;2022-12-07T01:49:25;11.52;;;11.13;;
29210;SDS011;16250;49.932;10.980;2022-12-07T01:52:16;11.63;;;11.23;;
29210;SDS011;16250;49.932;10.980;2022-12-07T01:54:43;10.93;;;10.52;;
29210;SDS011;16250;49.932;10.980;2022-12-07T01:57:10;9.98;;;9.65;;
29210;SDS011;16250;49.932;10.980;2022-12-07T01:59:38;10.32;;;9.82;;
29210;SDS011;16250;49.932;10.980;2022-12-07T02:02:05;10.05;;;9.73;;
29210;SDS011;16250;49.932;10.980;2022-12-07T02:04:38;11.00;;;10.60;;
29210;SDS011;16250;49.932;10.980;2022-12-07T02:07:04;9.90;;;9.60;;
29210;SDS011;16250;49.932;10.980;2022-12-07T02:09:30;11.18;;;10.77;;
29210;SDS011;16250;49.932;10.980;2022-12-07T02:11:56;11.32;;;10.93;;
29210;SDS011;16250;49.932;10.980;2022-12-07T02:14:22;10.30;;;9.90;;
29210;SDS011;16250;49.932;10.980;2022-12-07T02:16:58;11.50;;;11.10;;
29210;SDS011;16250;49.932;10.980;2022-12-07T02:19:47;9.90;;;9.60;;
29210;SDS011;16250;49.932;10.980;2022-12-07T02:22:51;9.95;;;9.65;;
29210;SDS011;16250;49.932;10.980;2022-12-07T02:28:31;10.43;;;10.02;;
29210;SDS011;16250;49.932;10.980;2022-12-07T02:31:14;10.25;;;9.88;;
29210;SDS011;16250;49.932;10.980;2022-12-07T02:33:47;13.85;;;13.25;;
29210;SDS011;16250;49.932;10.980;2022-12-07T02:36:25;11.45;;;11.05;;
29210;SDS011;16250;49.932;10.980;2022-12-07T02:38:58;10.10;;;9.77;;
29210;SDS011;16250;49.932;10.980;2022-12-07T02:41:26;10.73;;;10.32;;
29210;SDS011;16250;49.932;10.980;2022-12-07T02:43:57;10.10;;;9.73;;
29210;SDS011;16250;49.932;10.980;2022-12-07T02:46:27;9.50;;;9.20;;
29210;SDS011;16250;49.932;10.980;2022-12-07T02:49:03;10.25;;;9.85;;
29210;SDS011;16250;49.932;10.980;2022-12-07T02:51:30;11.32;;;10.93;;
29210;SDS011;16250;49.932;10.980;2022-12-07T02:53:56;9.63;;;9.32;;
29210;SDS011;16250;49.932;10.980;2022-12-07T03:05:25;13.52;;;12.63;;
29210;SDS011;16250;49.932;10.980;2022-12-07T03:08:18;9.65;;;9.35;;
29210;SDS011;16250;49.932;10.980;2022-12-07T03:13:28;8.38;;;8.07;;
29210;SDS011;16250;49.932;10.980;2022-12-07T03:21:26;9.45;;;9.15;;
29210;SDS011;16250;49.932;10.980;2022-12-07T03:23:56;9.32;;;9.02;;
29210;SDS011;16250;49.932;10.980;2022-12-07T03:26:28;10.23;;;9.82;;
29210;SDS011;16250;49.932;10.980;2022-12-07T03:29:00;10.32;;;9.93;;
29210;SDS011;16250;49.932;10.980;2022-12-07T03:31:31;9.18;;;8.88;;
29210;SDS011;16250;49.932;10.980;2022-12-07T03:36:55;8.30;;;8.00;;
29210;SDS011;16250;49.932;10.980;2022-12-07T03:39:39;8.90;;;8.60;;
29210;SDS011;16250;49.932;10.980;2022-12-07T03:42:11;9.10;;;8.80;;
29210;SDS011;16250;49.932;10.980;2022-12-07T03:44:37;9.52;;;9.23;;
29210;SDS011;16250;49.932;10.980;2022-12-07T03:50:25;10.75;;;10.35;;
29210;SDS011;16250;49.932;10.980;2022-12-07T03:53:05;9.52;;;9.23;;
29210;SDS011;16250;49.932;10.980;2022-12-07T03:55:51;9.77;;;9.48;;
29210;SDS011;16250;49.932;10.980;2022-12-07T03:58:19;12.25;;;11.75;;
29210;SDS011;16250;49.932;10.980;2022-12-07T04:00:46;9.80;;;9.48;;
29210;SDS011;16250;49.932;10.980;2022-12-07T04:03:13;11.48;;;11.07;;
29210;SDS011;16250;49.932;10.980;2022-12-07T04:05:39;8.75;;;8.45;;
29210;SDS011;16250;49.932;10.980;2022-12-07T04:08:05;11.38;;;10.98;;
29210;SDS011;16250;49.932;10.980;2022-12-07T04:10:30;9.57;;;9.27;;
29210;SDS011;16250;49.932;10.980;2022-12-07T04:12:56;10.13;;;9.77;;
29210;SDS011;16250;49.932;10.980;2022-12-07T04:15:21;9.68;;;9.38;;
29210;SDS011;16250;49.932;10.980;2022-12-07T04:17:47;11.23;;;10.73;;
29210;SDS011;16250;49.932;10.980;2022-12-07T04:20:13;11.15;;;10.75;;
29210;SDS011;16250;49.932;10.980;2022-12-07T04:22:39;9.93;;;9.52;;
29210;SDS011;16250;49.932;10.980;2022-12-07T04:25:05;11.45;;;11.05;;
29210;SDS011;16250;49.932;10.980;2022-12-07T04:27:31;10.10;;;9.75;;
29210;SDS011;16250;49.932;10.980;2022-12-07T04:29:56;10.90;;;10.50;;
29210;SDS011;16250;49.932;10.980;2022-12-07T04:32:22;8.95;;;8.65;;
29210;SDS011;16250;49.932;10.980;2022-12-07T04:34:48;8.70;;;8.40;;
29210;SDS011;16250;49.932;10.980;2022-12-07T04:37:13;8.73;;;8.43;;
29210;SDS011;16250;49.932;10.980;2022-12-07T04:39:39;9.23;;;8.93;;
29210;SDS011;16250;49.932;10.980;2022-12-07T04:42:05;11.07;;;10.68;;
29210;SDS011;16250;49.932;10.980;2022-12-07T04:44:30;9.10;;;8.80;;
29210;SDS011;16250;49.932;10.980;2022-12-07T04:46:56;9.73;;;9.38;;
29210;SDS011;16250;49.932;10.980;2022-12-07T04:49:22;8.90;;;8.60;;
29210;SDS011;16250;49.932;10.980;2022-12-07T04:51:48;10.10;;;9.70;;
29210;SDS011;16250;49.932;10.980;2022-12-07T04:54:14;9.00;;;8.70;;
29210;SDS011;16250;49.932;10.980;2022-12-07T04:56:41;9.73;;;9.43;;
29210;SDS011;16250;49.932;10.980;2022-12-07T04:59:07;10.63;;;10.23;;
29210;SDS011;16250;49.932;10.980;2022-12-07T05:01:33;12.43;;;11.90;;
29210;SDS011;16250;49.932;10.980;2022-12-07T05:03:59;11.68;;;11.27;;
29210;SDS011;16250;49.932;10.980;2022-12-07T05:06:25;9.40;;;9.05;;
29210;SDS011;16250;49.932;10.980;2022-12-07T05:08:50;9.07;;;8.77;;
29210;SDS011;16250;49.932;10.980;2022-12-07T05:11:16;9.55;;;9.25;;
29210;SDS011;16250;49.932;10.980;2022-12-07T05:14:01;9.95;;;9.60;;
29210;SDS011;16250;49.932;10.980;2022-12-07T05:16:28;9.57;;;9.27;;
29210;SDS011;16250;49.932;10.980;2022-12-07T05:18:53;13.93;;;13.18;;
29210;SDS011;16250;49.932;10.980;2022-12-07T05:21:19;9.15;;;8.85;;
29210;SDS011;16250;49.932;10.980;2022-12-07T05:23:45;8.35;;;8.05;;
29210;SDS011;16250;49.932;10.980;2022-12-07T05:26:10;10.18;;;9.80;;
29210;SDS011;16250;49.932;10.980;2022-12-07T05:28:36;9.70;;;9.32;;
29210;SDS011;16250;49.932;10.980;2022-12-07T05:31:01;8.80;;;8.50;;
29210;SDS011;16250;49.932;10.980;2022-12-07T05:33:28;9.27;;;8.98;;
29210;SDS011;16250;49.932;10.980;2022-12-07T05:35:53;9.45;;;9.15;;
29210;SDS011;16250;49.932;10.980;2022-12-07T05:38:19;9.48;;;9.18;;
29210;SDS011;16250;49.932;10.980;2022-12-07T05:40:44;9.13;;;8.82;;
29210;SDS011;16250;49.932;10.980;2022-12-07T05:43:10;17.13;;;16.05;;
29210;SDS011;16250;49.932;10.980;2022-12-07T05:45:35;8.90;;;8.60;;
29210;SDS011;16250;49.932;10.980;2022-12-07T05:48:01;12.13;;;11.63;;
29210;SDS011;16250;49.932;10.980;2022-12-07T05:50:26;11.30;;;10.90;;
29210;SDS011;16250;49.932;10.980;2022-12-07T05:52:53;8.60;;;8.30;;
29210;SDS011;16250;49.932;10.980;2022-12-07T05:55:18;9.27;;;8.98;;
29210;SDS011;16250;49.932;10.980;2022-12-07T05:57:44;9.68;;;9.27;;
29210;SDS011;16250;49.932;10.980;2022-12-07T06:00:29;9.93;;;9.63;;
29210;SDS011;16250;49.932;10.980;2022-12-07T06:02:55;9.48;;;9.18;;
29210;SDS011;16250;49.932;10.980;2022-12-07T06:05:21;8.77;;;8.48;;
29210;SDS011;16250;49.932;10.980;2022-12-07T06:07:46;9.65;;;9.35;;
29210;SDS011;16250;49.932;10.980;2022-12-07T06:10:12;11.25;;;10.85;;
29210;SDS011;16250;49.932;10.980;2022-12-07T06:12:37;12.57;;;11.90;;
29210;SDS011;16250;49.932;10.980;2022-12-07T06:15:04;10.02;;;9.68;;
29210;SDS011;16250;49.932;10.980;2022-12-07T06:17:30;13.02;;;12.30;;
29210;SDS011;16250;49.932;10.980;2022-12-07T06:19:56;10.57;;;10.18;;
29210;SDS011;16250;49.932;10.980;2022-12-07T06:22:22;8.65;;;8.35;;
29210;SDS011;16250;49.932;10.980;2022-12-07T06:24:47;13.23;;;12.50;;
29210;SDS011;16250;49.932;10.980;2022-12-07T06:27:13;15.60;;;14.73;;
29210;SDS011;16250;49.932;10.980;2022-12-07T06:29:38;12.70;;;11.98;;
29210;SDS011;16250;49.932;10.980;2022-12-07T06:32:04;9.40;;;9.10;;
29210;SDS011;16250;49.932;10.980;2022-12-07T06:34:30;12.32;;;11.77;;
29210;SDS011;16250;49.932;10.980;2022-12-07T06:36:56;10.20;;;9.80;;
29210;SDS011;16250;49.932;10.980;2022-12-07T06:39:22;8.43;;;8.13;;
29210;SDS011;16250;49.932;10.980;2022-12-07T06:41:50;11.27;;;10.75;;
29210;SDS011;16250;49.932;10.980;2022-12-07T06:44:19;10.00;;;9.68;;
29210;SDS011;16250;49.932;10.980;2022-12-07T06:46:45;8.20;;;7.90;;
29210;SDS011;16250;49.932;10.980;2022-12-07T06:49:11;10.95;;;10.45;;
29210;SDS011;16250;49.932;10.980;2022-12-07T06:51:37;11.32;;;10.93;;
29210;SDS011;16250;49.932;10.980;2022-12-07T06:54:09;10.57;;;10.15;;
29210;SDS011;16250;49.932;10.980;2022-12-07T06:56:36;9.13;;;8.73;;
29210;SDS011;16250;49.932;10.980;2022-12-07T06:59:02;10.10;;;9.65;;
29210;SDS011;16250;49.932;10.980;2022-12-07T07:01:30;9.55;;;9.25;;
29210;SDS011;16250;49.932;10.980;2022-12-07T07:03:56;10.60;;;10.20;;
29210;SDS011;16250;49.932;10.980;2022-12-07T07:06:21;9.77;;;9.48;;
29210;SDS011;16250;49.932;10.980;2022-12-07T07:08:47;9.80;;;9.50;;
29210;SDS011;16250;49.932;10.980;2022-12-07T07:11:12;9.60;;;9.30;;
29210;SDS011;16250;49.932;10.980;2022-12-07T07:13:38;10.35;;;9.95;;
29210;SDS011;16250;49.932;10.980;2022-12-07T07:16:04;9.98;;;9.65;;
29210;SDS011;16250;49.932;10.980;2022-12-07T07:18:30;10.35;;;9.95;;
29210;SDS011;16250;49.932;10.980;2022-12-07T07:20:56;11.43;;;10.98;;
29210;SDS011;16250;49.932;10.980;2022-12-07T07:23:21;11.93;;;11.38;;
29210;SDS011;16250;49.932;10.980;2022-12-07T07:25:47;9.85;;;9.55;;
29210;SDS011;16250;49.932;10.980;2022-12-07T07:28:13;9.77;;;9.48;;
29210;SDS011;16250;49.932;10.980;2022-12-07T07:30:40;12.35;;;11.70;;
29210;SDS011;16250;49.932;10.980;2022-12-07T07:33:06;12.60;;;11.77;;
29210;SDS011;16250;49.932;10.980;2022-12-07T07:35:32;9.30;;;9.00;;
29210;SDS011;16250;49.932;10.980;2022-12-07T07:37:58;12.38;;;11.88;;
29210;SDS011;16250;49.932;10.980;2022-12-07T07:40:25;10.15;;;9.75;;
29210;SDS011;16250;49.932;10.980;2022-12-07T07:42:52;11.27;;;10.68;;
29210;SDS011;16250;49.932;10.980;2022-12-07T07:45:18;16.27;;;13.20;;
29210;SDS011;16250;49.932;10.980;2022-12-07T07:47:45;17.40;;;16.10;;
29210;SDS011;16250;49.932;10.980;2022-12-07T07:50:10;14.20;;;13.32;;
29210;SDS011;16250;49.932;10.980;2022-12-07T07:52:36;9.52;;;9.23;;
29210;SDS011;16250;49.932;10.980;2022-12-07T07:55:02;13.63;;;12.93;;
29210;SDS011;16250;49.932;10.980;2022-12-07T07:57:28;12.00;;;11.32;;
29210;SDS011;16250;49.932;10.980;2022-12-07T07:59:53;17.27;;;15.93;;
29210;SDS011;16250;49.932;10.980;2022-12-07T08:02:20;10.07;;;9.70;;
29210;SDS011;16250;49.932;10.980;2022-12-07T08:04:46;9.25;;;8.95;;
29210;SDS011;16250;49.932;10.980;2022-12-07T08:07:11;8.77;;;8.48;;
29210;SDS011;16250;49.932;10.980;2022-12-07T08:09:37;14.75;;;14.00;;
29210;SDS011;16250;49.932;10.980;2022-12-07T08:12:03;9.07;;;8.68;;
29210;SDS011;16250;49.932;10.980;2022-12-07T08:14:29;13.10;;;12.32;;
29210;SDS011;16250;49.932;10.980;2022-12-07T08:16:55;9.70;;;9.40;;
29210;SDS011;16250;49.932;10.980;2022-12-07T08:19:21;11.13;;;10.63;;
29210;SDS011;16250;49.932;10.980;2022-12-07T08:21:46;10.00;;;9.68;;
29210;SDS011;16250;49.932;10.980;2022-12-07T08:24:12;17.42;;;16.13;;
29210;SDS011;16250;49.932;10.980;2022-12-07T08:26:38;11.82;;;11.38;;
29210;SDS011;16250;49.932;10.980;2022-12-07T08:29:04;10.95;;;10.13;;
29210;SDS011;16250;49.932;10.980;2022-12-07T08:31:30;11.57;;;11.10;;
29210;SDS011;16250;49.932;10.980;2022-12-07T08:33:56;10.88;;;10.48;;
29210;SDS011;16250;49.932;10.980;2022-12-07T08:36:22;10.98;;;10.57;;
29210;SDS011;16250;49.932;10.980;2022-12-07T08:38:48;10.30;;;9.90;;
29210;SDS011;16250;49.932;10.980;2022-12-07T08:41:14;13.20;;;12.57;;
29210;SDS011;16250;49.932;10.980;2022-12-07T08:43:40;11.15;;;10.75;;
29210;SDS011;16250;49.932;10.980;2022-12-07T08:46:07;13.57;;;12.98;;
29210;SDS011;16250;49.932;10.980;2022-12-07T08:51:40;10.50;;;10.07;;
29210;SDS011;16250;49.932;10.980;2022-12-07T08:54:07;12.02;;;11.45;;
29210;SDS011;16250;49.932;10.980;2022-12-07T08:56:36;10.82;;;10.40;;
29210;SDS011;16250;49.932;10.980;2022-12-07T08:59:02;9.35;;;9.05;;
29210;SDS011;16250;49.932;10.980;2022-12-07T09:01:29;11.73;;;11.23;;
29210;SDS011;16250;49.932;10.980;2022-12-07T09:03:55;13.25;;;12.65;;
29210;SDS011;16250;49.932;10.980;2022-12-07T09:06:21;14.23;;;12.88;;
29210;SDS011;16250;49.932;10.980;2022-12-07T09:08:47;10.38;;;10.00;;
29210;SDS011;16250;49.932;10.980;2022-12-07T09:11:16;17.40;;;16.30;;
29210;SDS011;16250;49.932;10.980;2022-12-07T09:13:41;20.25;;;18.55;;
29210;SDS011;16250;49.932;10.980;2022-12-07T09:16:07;21.08;;;19.42;;
29210;SDS011;16250;49.932;10.980;2022-12-07T09:18:32;15.05;;;13.93;;
29210;SDS011;16250;49.932;10.980;2022-12-07T09:20:58;9.77;;;9.27;;
29210;SDS011;16250;49.932;10.980;2022-12-07T09:23:23;8.77;;;8.48;;
29210;SDS011;16250;49.932;10.980;2022-12-07T09:25:50;9.75;;;9.35;;
29210;SDS011;16250;49.932;10.980;2022-12-07T09:28:15;9.15;;;8.68;;
29210;SDS011;16250;49.932;10.980;2022-12-07T09:30:47;10.80;;;10.40;;
29210;SDS011;16250;49.932;10.980;2022-12-07T09:33:13;10.20;;;9.80;;
29210;SDS011;16250;49.932;10.980;2022-12-07T09:35:46;12.85;;;12.30;;
29210;SDS011;16250;49.932;10.980;2022-12-07T09:38:13;9.88;;;9.57;;
29210;SDS011;16250;49.932;10.980;2022-12-07T09:40:39;11.88;;;11.25;;
29210;SDS011;16250;49.932;10.980;2022-12-07T09:43:05;11.45;;;10.95;;
29210;SDS011;16250;49.932;10.980;2022-12-07T09:45:45;10.52;;;10.13;;
29210;SDS011;16250;49.932;10.980;2022-12-07T09:48:16;12.45;;;11.93;;
29210;SDS011;16250;49.932;10.980;2022-12-07T09:50:57;9.00;;;8.60;;
29210;SDS011;16250;49.932;10.980;2022-12-07T09:53:30;9.55;;;9.15;;
29210;SDS011;16250;49.932;10.980;2022-12-07T09:55:59;11.70;;;10.68;;
29210;SDS011;16250;49.932;10.980;2022-12-07T09:58:26;10.25;;;9.85;;
29210;SDS011;16250;49.932;10.980;2022-12-07T10:03:35;11.07;;;10.60;;
29210;SDS011;16250;49.932;10.980;2022-12-07T10:06:04;8.93;;;8.52;;
29210;SDS011;16250;49.932;10.980;2022-12-07T10:08:30;10.45;;;9.73;;
29210;SDS011;16250;49.932;10.980;2022-12-07T10:10:57;11.75;;;11.15;;
29210;SDS011;16250;49.932;10.980;2022-12-07T10:16:03;10.73;;;10.23;;
29210;SDS011;16250;49.932;10.980;2022-12-07T10:18:33;9.60;;;9.10;;
29210;SDS011;16250;49.932;10.980;2022-12-07T10:21:03;9.70;;;9.30;;
29210;SDS011;16250;49.932;10.980;2022-12-07T10:23:33;9.88;;;9.52;;
29210;SDS011;16250;49.932;10.980;2022-12-07T10:25:59;9.32;;;8.77;;
29210;SDS011;16250;49.932;10.980;2022-12-07T10:29:14;9.73;;;9.40;;
29210;SDS011;16250;49.932;10.980;2022-12-07T10:31:44;9.50;;;9.13;;
29210;SDS011;16250;49.932;10.980;2022-12-07T10:34:21;11.07;;;10.55;;
29210;SDS011;16250;49.932;10.980;2022-12-07T10:36:51;8.98;;;8.68;;
29210;SDS011;16250;49.932;10.980;2022-12-07T10:39:18;10.57;;;10.02;;
29210;SDS011;16250;49.932;10.980;2022-12-07T10:41:55;10.25;;;9.68;;
29210;SDS011;16250;49.932;10.980;2022-12-07T10:44:27;8.85;;;8.45;;
29210;SDS011;16250;49.932;10.980;2022-12-07T10:55:52;11.15;;;10.55;;
29210;SDS011;16250;49.932;10.980;2022-12-07T11:06:32;15.20;;;14.38;;
29210;SDS011;16250;49.932;10.980;2022-12-07T11:12:11;14.35;;;13.27;;
29210;SDS011;16250;49.932;10.980;2022-12-07T11:14:54;10.98;;;9.95;;
29210;SDS011;16250;49.932;10.980;2022-12-07T11:31:26;16.40;;;15.02;;
29210;SDS011;16250;49.932;10.980;2022-12-07T11:34:08;9.75;;;9.35;;
29210;SDS011;16250;49.932;10.980;2022-12-07T11:36:51;8.82;;;8.52;;
29210;SDS011;16250;49.932;10.980;2022-12-07T11:39:22;10.43;;;9.93;;
29210;SDS011;16250;49.932;10.980;2022-12-07T11:41:55;7.68;;;7.07;;
29210;SDS011;16250;49.932;10.980;2022-12-07T11:44:31;9.45;;;9.15;;
29210;SDS011;16250;49.932;10.980;2022-12-07T11:47:30;12.70;;;11.82;;
29210;SDS011;16250;49.932;10.980;2022-12-07T12:03:44;8.38;;;8.07;;
29210;SDS011;16250;49.932;10.980;2022-12-07T12:06:14;9.20;;;8.70;;
29210;SDS011;16250;49.932;10.980;2022-12-07T12:08:42;7.80;;;7.50;;
29210;SDS011;16250;49.932;10.980;2022-12-07T12:21:52;10.23;;;9.73;;
29210;SDS011;16250;49.932;10.980;2022-12-07T12:24:22;12.60;;;11.88;;
29210;SDS011;16250;49.932;10.980;2022-12-07T12:26:52;8.43;;;7.95;;
29210;SDS011;16250;49.932;10.980;2022-12-07T12:29:28;8.85;;;8.45;;
29210;SDS011;16250;49.932;10.980;2022-12-07T12:32:05;10.18;;;9.52;;
29210;SDS011;16250;49.932;10.980;2022-12-07T12:34:39;10.50;;;9.90;;
29210;SDS011;16250;49.932;10.980;2022-12-07T12:37:38;7.22;;;6.78;;
29210;SDS011;16250;49.932;10.980;2022-12-07T12:42:58;14.23;;;13.50;;
29210;SDS011;16250;49.932;10.980;2022-12-07T12:45:24;8.13;;;7.75;;
29210;SDS011;16250;49.932;10.980;2022-12-07T12:47:58;7.07;;;6.88;;
29210;SDS011;16250;49.932;10.980;2022-12-07T12:50:34;9.27;;;8.85;;
29210;SDS011;16250;49.932;10.980;2022-12-07T12:53:14;7.93;;;7.63;;
29210;SDS011;16250;49.932;10.980;2022-12-07T12:58:37;8.70;;;8.30;;
29210;SDS011;16250;49.932;10.980;2022-12-07T13:04:00;6.80;;;6.50;;
29210;SDS011;16250;49.932;10.980;2022-12-07T13:06:35;6.72;;;6.43;;
29210;SDS011;16250;49.932;10.980;2022-12-07T13:09:03;6.38;;;6.18;;
29210;SDS011;16250;49.932;10.980;2022-12-07T13:11:37;6.20;;;6.00;;
29210;SDS011;16250;49.932;10.980;2022-12-07T13:17:12;7.55;;;7.25;;
29210;SDS011;16250;49.932;10.980;2022-12-07T13:20:00;7.32;;;7.07;;
29210;SDS011;16250;49.932;10.980;2022-12-07T13:25:09;7.13;;;6.85;;
29210;SDS011;16250;49.932;10.980;2022-12-07T13:27:42;13.88;;;11.02;;
29210;SDS011;16250;49.932;10.980;2022-12-07T13:30:14;6.05;;;5.85;;
29210;SDS011;16250;49.932;10.980;2022-12-07T13:32:43;9.50;;;8.98;;
29210;SDS011;16250;49.932;10.980;2022-12-07T13:35:36;10.07;;;9.45;;
29210;SDS011;16250;49.932;10.980;2022-12-07T13:38:15;8.07;;;7.78;;
29210;SDS011;16250;49.932;10.980;2022-12-07T13:43:44;8.30;;;7.80;;
29210;SDS011;16250;49.932;10.980;2022-12-07T13:46:13;10.10;;;9.50;;
29210;SDS011;16250;49.932;10.980;2022-12-07T13:51:19;8.82;;;8.32;;
29210;SDS011;16250;49.932;10.980;2022-12-07T13:53:58;6.75;;;6.55;;
29210;SDS011;16250;49.932;10.980;2022-12-07T13:56:26;6.03;;;5.72;;
29210;SDS011;16250;49.932;10.980;2022-12-07T13:58:57;6.18;;;5.97;;
29210;SDS011;16250;49.932;10.980;2022-12-07T14:01:23;7.75;;;7.13;;
29210;SDS011;16250;49.932;10.980;2022-12-07T14:03:49;7.30;;;7.03;;
29210;SDS011;16250;49.932;10.980;2022-12-07T14:06:25;6.05;;;5.85;;
29210;SDS011;16250;49.932;10.980;2022-12-07T14:09:09;6.28;;;5.97;;
29210;SDS011;16250;49.932;10.980;2022-12-07T14:11:52;6.95;;;6.57;;
29210;SDS011;16250;49.932;10.980;2022-12-07T14:14:20;5.70;;;5.50;;
29210;SDS011;16250;49.932;10.980;2022-12-07T14:16:55;8.85;;;8.32;;
29210;SDS011;16250;49.932;10.980;2022-12-07T14:22:15;6.15;;;5.95;;
29210;SDS011;16250;49.932;10.980;2022-12-07T14:24:43;5.53;;;5.32;;
29210;SDS011;16250;49.932;10.980;2022-12-07T14:27:22;8.20;;;7.80;;
29210;SDS011;16250;49.932;10.980;2022-12-07T14:29:50;8.35;;;7.88;;
29210;SDS011;16250;49.932;10.980;2022-12-07T14:37:44;4.40;;;4.30;;
29210;SDS011;16250;49.932;10.980;2022-12-07T14:40:16;8.65;;;7.95;;
29210;SDS011;16250;49.932;10.980;2022-12-07T14:42:56;7.95;;;7.55;;
29210;SDS011;16250;49.932;10.980;2022-12-07T14:45:25;6.75;;;4.25;;
29210;SDS011;16250;49.932;10.980;2022-12-07T14:47:51;3.92;;;3.72;;
29210;SDS011;16250;49.932;10.980;2022-12-07T14:50:17;9.10;;;8.40;;
29210;SDS011;16250;49.932;10.980;2022-12-07T14:52:46;8.35;;;7.82;;
29210;SDS011;16250;49.932;10.980;2022-12-07T14:55:36;4.15;;;3.75;;
29210;SDS011;16250;49.932;10.980;2022-12-07T14:58:01;7.05;;;6.65;;
29210;SDS011;16250;49.932;10.980;2022-12-07T15:00:27;3.90;;;3.70;;
29210;SDS011;16250;49.932;10.980;2022-12-07T15:02:54;4.60;;;4.40;;
29210;SDS011;16250;49.932;10.980;2022-12-07T15:05:20;4.47;;;4.38;;
29210;SDS011;16250;49.932;10.980;2022-12-07T15:07:46;4.25;;;4.15;;
29210;SDS011;16250;49.932;10.980;2022-12-07T15:10:15;4.47;;;4.38;;
29210;SDS011;16250;49.932;10.980;2022-12-07T15:12:43;3.83;;;3.72;;
29210;SDS011;16250;49.932;10.980;2022-12-07T15:15:09;4.00;;;3.90;;
29210;SDS011;16250;49.932;10.980;2022-12-07T15:17:34;4.22;;;4.13;;
29210;SDS011;16250;49.932;10.980;2022-12-07T15:20:00;5.15;;;4.95;;
29210;SDS011;16250;49.932;10.980;2022-12-07T15:22:26;5.15;;;4.95;;
29210;SDS011;16250;49.932;10.980;2022-12-07T15:24:51;4.75;;;4.60;;
29210;SDS011;16250;49.932;10.980;2022-12-07T15:27:17;4.38;;;4.28;;
29210;SDS011;16250;49.932;10.980;2022-12-07T15:29:42;4.97;;;4.78;;
29210;SDS011;16250;49.932;10.980;2022-12-07T15:32:08;4.72;;;4.60;;
29210;SDS011;16250;49.932;10.980;2022-12-07T15:34:34;4.32;;;4.22;;
29210;SDS011;16250;49.932;10.980;2022-12-07T15:36:59;4.18;;;4.07;;
29210;SDS011;16250;49.932;10.980;2022-12-07T15:39:25;5.07;;;4.88;;
29210;SDS011;16250;49.932;10.980;2022-12-07T15:41:50;5.47;;;5.28;;
29210;SDS011;16250;49.932;10.980;2022-12-07T15:44:16;5.57;;;5.38;;
29210;SDS011;16250;49.932;10.980;2022-12-07T15:47:00;5.43;;;5.22;;
29210;SDS011;16250;49.932;10.980;2022-12-07T15:49:25;4.47;;;4.38;;
29210;SDS011;16250;49.932;10.980;2022-12-07T15:51:52;5.18;;;4.97;;
29210;SDS011;16250;49.932;10.980;2022-12-07T15:54:19;4.20;;;4.10;;
29210;SDS011;16250;49.932;10.980;2022-12-07T15:56:46;4.82;;;4.65;;
29210;SDS011;16250;49.932;10.980;2022-12-07T15:59:12;4.68;;;4.53;;
29210;SDS011;16250;49.932;10.980;2022-12-07T16:01:38;4.65;;;4.55;;
29210;SDS011;16250;49.932;10.980;2022-12-07T16:04:04;4.93;;;4.72;;
29210;SDS011;16250;49.932;10.980;2022-12-07T16:06:29;4.15;;;4.05;;
29210;SDS011;16250;49.932;10.980;2022-12-07T16:08:55;4.82;;;4.63;;
29210;SDS011;16250;49.932;10.980;2022-12-07T16:11:21;4.22;;;4.13;;
29210;SDS011;16250;49.932;10.980;2022-12-07T16:13:46;4.78;;;4.63;;
29210;SDS011;16250;49.932;10.980;2022-12-07T16:16:13;4.47;;;4.38;;
29210;SDS011;16250;49.932;10.980;2022-12-07T16:18:41;4.95;;;4.75;;
29210;SDS011;16250;49.932;10.980;2022-12-07T16:21:08;5.10;;;4.90;;
29210;SDS011;16250;49.932;10.980;2022-12-07T16:23:33;4.57;;;4.47;;
29210;SDS011;16250;49.932;10.980;2022-12-07T16:26:06;7.50;;;7.20;;
29210;SDS011;16250;49.932;10.980;2022-12-07T16:28:33;17.63;;;16.63;;
29210;SDS011;16250;49.932;10.980;2022-12-07T16:31:03;5.03;;;4.82;;
29210;SDS011;16250;49.932;10.980;2022-12-07T16:33:35;7.53;;;7.03;;
29210;SDS011;16250;49.932;10.980;2022-12-07T16:36:02;7.72;;;7.38;;
29210;SDS011;16250;49.932;10.980;2022-12-07T16:38:30;5.68;;;5.47;;